KSQL/SQL METAR and TAF weather

Enter ICAO airport designator
Station Type Date Time Source
KSQL METAR 2019/02/21 15:50 UTC NOAA

KSQL 211550Z 30003KT 10SM FEW025 07/02 A2976


Station Type Date Time Source
KSQL Decoded METAR 2019/02/21 15:50 UTC NOAA

San Carlos Airport, CA, United States (KSQL) 37-31N 122-15W
Feb 21, 2019 - 10:50 AM EST / 2019.02.21 1550 UTC
Wind: from the WNW (300 degrees) at 3 MPH (3 KT):0
Visibility: 10 mile(s):0
Sky conditions: mostly clear
Temperature: 44 F (7 C)
Dew Point: 35 F (2 C)
Relative Humidity: 70%
Pressure (altimeter): 29.76 in. Hg (1007 hPa)
ob: KSQL 211550Z 30003KT 10SM FEW025 07/02 A2976
cycle: 16

Station Type Date Time Source
KSQL TAF UTC NOAA

Error!


Example: see airport list